Time;durP1;ratioP1;P1;durP2;ratioP2;P2;SDS_P1;SDS_P2;PMS_P1;PMS_P2;Temp;Humidity;BMP_temperature;BMP_pressure;BME280_temperature;BME280_humidity;BME280_pressure;Samples;Min_cycle;Max_cycle;Signal;HPM_P1;HPM_P2
2022/03/12 00:01:02;;;;;;;3.20;3.10;;;17.80;59.00;;;;;;5107550;27;45232;-69
2022/03/12 00:03:32;;;;;;;3.30;3.20;;;17.70;59.20;;;;;;5106418;27;43477;-69
2022/03/12 00:06:01;;;;;;;2.90;2.90;;;17.70;59.40;;;;;;5107199;27;44006;-69
2022/03/12 00:08:41;;;;;;;3.07;2.97;;;17.60;59.50;;;;;;5127295;27;44267;-69
2022/03/12 00:11:10;;;;;;;2.67;2.67;;;17.50;59.60;;;;;;5101572;27;43850;-69
2022/03/12 00:13:38;;;;;;;2.93;2.83;;;17.50;59.80;;;;;;5088148;27;43833;-69
2022/03/12 00:16:11;;;;;;;3.30;3.20;;;17.50;59.90;;;;;;5107101;27;43382;-69
2022/03/12 00:18:41;;;;;;;2.90;2.87;;;17.50;60.20;;;;;;5106950;27;43998;-69
2022/03/12 00:21:10;;;;;;;3.20;3.10;;;17.60;60.00;;;;;;5110651;27;43984;-69
2022/03/12 00:23:45;;;;;;;3.17;3.07;;;17.70;59.60;;;;;;5109793;27;43880;-69
2022/03/12 00:26:16;;;;;;;3.20;3.10;;;17.80;59.40;;;;;;5110426;27;43362;-69
2022/03/12 00:28:44;;;;;;;2.80;2.80;;;17.80;59.40;;;;;;5110610;27;43506;-69
2022/03/12 00:31:13;;;;;;;3.20;3.10;;;17.70;59.30;;;;;;5110176;27;43793;-69
2022/03/12 00:33:41;;;;;;;2.87;2.83;;;17.70;59.50;;;;;;5091143;27;44805;-70
2022/03/12 00:36:09;;;;;;;2.90;2.80;;;17.60;59.60;;;;;;5110551;27;43928;-69
2022/03/12 00:38:37;;;;;;;3.07;3.00;;;17.50;59.60;;;;;;5091194;27;43932;-69
2022/03/12 00:41:08;;;;;;;3.00;2.90;;;17.50;59.80;;;;;;5091661;27;45876;-69
2022/03/12 00:43:35;;;;;;;3.10;3.00;;;17.50;59.90;;;;;;5091400;27;45172;-68
2022/03/12 00:46:05;;;;;;;3.03;2.93;;;17.40;60.00;;;;;;5110331;27;43883;-69
2022/03/12 00:48:33;;;;;;;2.83;2.83;;;17.40;60.00;;;;;;5110025;27;43926;-68
2022/03/12 00:51:08;;;;;;;3.10;3.00;;;17.40;60.10;;;;;;5093405;27;43896;-69
2022/03/12 00:53:36;;;;;;;2.93;2.93;;;17.40;60.30;;;;;;5090978;27;43403;-69
2022/03/12 00:56:05;;;;;;;3.00;3.00;;;17.40;60.40;;;;;;5110296;27;44077;-69
2022/03/12 00:58:35;;;;;;;3.03;2.93;;;17.60;60.20;;;;;;5110007;27;44224;-69
2022/03/12 01:01:04;;;;;;;2.70;2.70;;;17.80;59.80;;;;;;5109741;27;43790;-69
2022/03/12 01:03:32;;;;;;;2.73;2.73;;;18.00;59.30;;;;;;5109201;27;43393;-69
2022/03/12 01:06:01;;;;;;;3.03;2.93;;;18.00;59.00;;;;;;5091584;27;43943;-69
2022/03/12 01:08:31;;;;;;;2.70;2.70;;;18.00;58.80;;;;;;5129325;27;43808;-69
2022/03/12 01:11:00;;;;;;;2.70;2.70;;;18.00;58.90;;;;;;5084555;27;47299;-70
2022/03/12 01:13:28;;;;;;;2.67;2.67;;;17.90;59.00;;;;;;5109476;27;43944;-69
2022/03/12 01:15:59;;;;;;;2.70;2.70;;;17.80;59.20;;;;;;5103517;27;43383;-69
2022/03/12 01:18:27;;;;;;;2.80;2.80;;;17.70;59.40;;;;;;5103946;27;44026;-69
2022/03/12 01:20:55;;;;;;;2.77;2.77;;;17.60;59.50;;;;;;5091341;27;45704;-69
2022/03/12 01:23:24;;;;;;;2.80;2.80;;;17.60;59.70;;;;;;5108769;27;44105;-69
2022/03/12 01:25:53;;;;;;;2.80;2.80;;;17.50;59.80;;;;;;5109907;27;44024;-70
2022/03/12 01:28:21;;;;;;;2.60;2.60;;;17.50;59.90;;;;;;5109786;27;43946;-69
2022/03/12 01:30:49;;;;;;;2.60;2.60;;;17.50;60.20;;;;;;5090217;27;46027;-69
2022/03/12 01:33:19;;;;;;;2.77;2.77;;;17.50;60.40;;;;;;5090601;27;44921;-69
2022/03/12 01:35:47;;;;;;;2.73;2.73;;;17.60;60.00;;;;;;5090585;27;44039;-69
2022/03/12 01:38:15;;;;;;;2.73;2.73;;;17.80;59.70;;;;;;5109632;27;44051;-68
2022/03/12 01:40:43;;;;;;;2.40;2.40;;;17.90;59.20;;;;;;5109150;27;43744;-69
2022/03/12 01:43:11;;;;;;;2.60;2.60;;;18.00;59.10;;;;;;5109414;27;43961;-68
2022/03/12 01:45:41;;;;;;;2.20;2.20;;;17.90;59.00;;;;;;5109048;27;43385;-69
2022/03/12 01:48:09;;;;;;;2.60;2.60;;;17.80;59.10;;;;;;5090726;27;43885;-69
2022/03/12 01:50:38;;;;;;;2.67;2.67;;;17.80;59.30;;;;;;5108954;27;43782;-68
2022/03/12 01:53:07;;;;;;;2.60;2.60;;;17.70;59.50;;;;;;5108817;27;44052;-69
2022/03/12 01:55:38;;;;;;;2.60;2.60;;;17.60;59.60;;;;;;5110473;27;44026;-69
2022/03/12 01:58:06;;;;;;;2.80;2.70;;;17.50;59.80;;;;;;5090585;27;43646;-69
2022/03/12 02:00:41;;;;;;;2.60;2.60;;;17.50;59.90;;;;;;5109131;27;43940;-70
2022/03/12 02:03:10;;;;;;;2.60;2.60;;;17.50;60.00;;;;;;5108850;27;43978;-69
2022/03/12 02:05:40;;;;;;;2.40;2.40;;;17.40;60.10;;;;;;5108716;27;44100;-69
2022/03/12 02:08:13;;;;;;;2.60;2.60;;;17.40;60.20;;;;;;5090828;27;43598;-69
2022/03/12 02:10:41;;;;;;;2.53;2.50;;;17.40;60.40;;;;;;5108631;27;43927;-69
2022/03/12 02:13:09;;;;;;;2.50;2.40;;;17.60;60.30;;;;;;5090166;27;44588;-69
2022/03/12 02:15:37;;;;;;;2.27;2.27;;;17.80;59.90;;;;;;5109641;27;43301;-68
2022/03/12 02:18:05;;;;;;;2.40;2.40;;;17.90;59.40;;;;;;5084154;27;43573;-69
2022/03/12 02:20:34;;;;;;;2.20;2.20;;;18.00;59.00;;;;;;5101828;27;44671;-69
2022/03/12 02:23:03;;;;;;;2.20;2.20;;;18.00;59.00;;;;;;5108554;27;44045;-69
2022/03/12 02:25:33;;;;;;;2.17;2.17;;;18.00;59.00;;;;;;5107888;27;44006;-70
2022/03/12 02:28:02;;;;;;;2.10;2.10;;;17.90;59.20;;;;;;5090535;27;43993;-70
2022/03/12 02:30:36;;;;;;;2.10;2.10;;;17.80;59.40;;;;;;5089472;27;46030;-70
2022/03/12 02:33:04;;;;;;;2.20;2.20;;;17.70;59.60;;;;;;5108349;27;44022;-69
2022/03/12 02:35:35;;;;;;;2.40;2.40;;;17.60;59.70;;;;;;5107754;27;43929;-69
2022/03/12 02:38:03;;;;;;;2.10;2.10;;;17.50;59.90;;;;;;5108845;27;44178;-69
2022/03/12 02:40:33;;;;;;;2.03;2.03;;;17.50;60.00;;;;;;5090407;27;47111;-69
2022/03/12 02:43:01;;;;;;;1.90;1.90;;;17.50;60.20;;;;;;5106984;27;43950;-69
2022/03/12 02:45:29;;;;;;;2.00;2.00;;;17.40;60.20;;;;;;5089765;27;44221;-69
2022/03/12 02:47:57;;;;;;;1.83;1.83;;;17.40;60.70;;;;;;5090211;27;43562;-69
2022/03/12 02:50:26;;;;;;;2.07;2.07;;;17.60;60.50;;;;;;5107673;27;43919;-69
2022/03/12 02:52:54;;;;;;;2.10;2.10;;;17.70;60.00;;;;;;5107711;27;44034;-69
2022/03/12 02:55:24;;;;;;;2.27;2.27;;;17.80;59.80;;;;;;5088800;27;43986;-69
2022/03/12 02:57:53;;;;;;;1.80;1.80;;;17.70;59.70;;;;;;5089775;27;43844;-69
2022/03/12 03:00:21;;;;;;;2.20;2.20;;;17.70;59.70;;;;;;5107869;27;44348;-69
2022/03/12 03:02:53;;;;;;;2.00;2.00;;;17.60;59.80;;;;;;5089252;27;45427;-69
2022/03/12 03:05:30;;;;;;;1.87;1.87;;;17.60;60.00;;;;;;5089066;27;43948;-69
2022/03/12 03:07:58;;;;;;;2.10;2.10;;;17.50;60.00;;;;;;5108810;27;44119;-69
2022/03/12 03:10:31;;;;;;;2.10;2.10;;;17.40;60.10;;;;;;5107436;27;43950;-69
2022/03/12 03:13:11;;;;;;;1.77;1.77;;;17.50;60.40;;;;;;5089868;27;45286;-69
2022/03/12 03:15:41;;;;;;;1.80;1.80;;;17.40;60.40;;;;;;5107415;27;43995;-69
2022/03/12 03:18:10;;;;;;;2.30;2.30;;;17.40;60.50;;;;;;5089505;27;44011;-69
2022/03/12 03:20:38;;;;;;;1.90;1.90;;;17.40;60.60;;;;;;5108461;27;43903;-69
2022/03/12 03:23:07;;;;;;;1.60;1.60;;;17.40;60.80;;;;;;5124647;27;44074;-69
2022/03/12 03:25:35;;;;;;;1.90;1.90;;;17.50;60.90;;;;;;5127189;27;43893;-68
2022/03/12 03:28:08;;;;;;;1.80;1.80;;;17.60;60.50;;;;;;5108954;27;44006;-70
2022/03/12 03:30:38;;;;;;;1.90;1.90;;;17.80;60.00;;;;;;5108214;27;45895;-69
2022/03/12 03:33:08;;;;;;;1.80;1.80;;;18.00;59.50;;;;;;5127362;27;43911;-69
2022/03/12 03:35:39;;;;;;;2.03;2.03;;;18.10;59.20;;;;;;5108014;27;43897;-69
2022/03/12 03:38:08;;;;;;;1.87;1.87;;;18.00;59.00;;;;;;5127732;27;43906;-70
2022/03/12 03:40:36;;;;;;;1.73;1.73;;;17.90;59.10;;;;;;5108071;27;45325;-69
2022/03/12 03:43:04;;;;;;;1.83;1.83;;;17.90;59.40;;;;;;5125477;27;43923;-69
2022/03/12 03:45:33;;;;;;;1.90;1.90;;;17.70;59.40;;;;;;5114183;27;44054;-69
2022/03/12 03:48:01;;;;;;;1.90;1.90;;;17.70;59.70;;;;;;5108138;27;44011;-69
2022/03/12 03:50:30;;;;;;;1.70;1.70;;;17.60;59.90;;;;;;5088063;27;44973;-70
2022/03/12 03:53:02;;;;;;;1.80;1.80;;;17.50;60.00;;;;;;5106954;27;43548;-69
2022/03/12 03:55:31;;;;;;;2.00;2.00;;;17.50;60.20;;;;;;5081357;27;44041;-69
2022/03/12 03:57:59;;;;;;;1.73;1.73;;;17.40;60.20;;;;;;5096278;27;44000;-68
2022/03/12 04:00:28;;;;;;;1.80;1.80;;;17.40;60.60;;;;;;5100086;27;43837;-68
2022/03/12 04:03:02;;;;;;;1.73;1.73;;;17.50;60.70;;;;;;5100606;27;43904;-68
2022/03/12 04:05:34;;;;;;;1.90;1.90;;;17.60;60.20;;;;;;5085822;27;43428;-69
2022/03/12 04:08:02;;;;;;;1.87;1.87;;;17.70;59.90;;;;;;5107450;27;43967;-68
2022/03/12 04:10:31;;;;;;;1.70;1.70;;;17.70;59.70;;;;;;5106576;27;44821;-70
2022/03/12 04:12:59;;;;;;;1.60;1.60;;;17.70;59.80;;;;;;5107461;27;43926;-69
2022/03/12 04:15:27;;;;;;;1.70;1.70;;;17.60;59.80;;;;;;5106696;27;43970;-69
2022/03/12 04:18:01;;;;;;;1.70;1.70;;;17.60;60.00;;;;;;5089326;27;44018;-69
2022/03/12 04:20:29;;;;;;;1.80;1.80;;;17.50;60.10;;;;;;5106358;27;44010;-70
2022/03/12 04:22:57;;;;;;;1.70;1.70;;;17.50;60.30;;;;;;5088580;27;46197;-69
2022/03/12 04:25:27;;;;;;;1.80;1.80;;;17.40;60.40;;;;;;5088297;27;43889;-69
2022/03/12 04:27:56;;;;;;;1.97;1.97;;;17.40;60.50;;;;;;5089024;27;43959;-68
2022/03/12 04:30:28;;;;;;;1.80;1.80;;;17.40;60.60;;;;;;5087377;27;43831;-69
2022/03/12 04:32:57;;;;;;;1.80;1.80;;;17.40;60.70;;;;;;5088794;27;44837;-69
2022/03/12 04:35:26;;;;;;;1.67;1.67;;;17.40;60.80;;;;;;5106567;27;43926;-70
2022/03/12 04:37:54;;;;;;;1.80;1.80;;;17.40;61.00;;;;;;5107147;27;43939;-68
2022/03/12 04:40:25;;;;;;;1.60;1.60;;;17.40;60.90;;;;;;5106058;27;44049;-69
2022/03/12 04:42:53;;;;;;;1.80;1.80;;;17.60;60.50;;;;;;5087697;27;46103;-68
2022/03/12 04:45:22;;;;;;;1.60;1.60;;;17.80;60.00;;;;;;5087532;27;43933;-69
2022/03/12 04:47:51;;;;;;;1.67;1.67;;;18.00;59.50;;;;;;5088682;27;43986;-69
2022/03/12 04:50:21;;;;;;;1.70;1.70;;;18.10;59.20;;;;;;5107661;27;43927;-68
2022/03/12 04:52:50;;;;;;;1.70;1.70;;;18.00;59.80;;;;;;5087532;27;45310;-69
2022/03/12 04:55:19;;;;;;;1.73;1.73;;;18.00;59.30;;;;;;5106393;27;43901;-69
2022/03/12 04:57:47;;;;;;;1.70;1.70;;;17.90;59.40;;;;;;5106845;27;43517;-68
2022/03/12 05:00:17;;;;;;;1.60;1.60;;;17.80;59.60;;;;;;5105910;27;43896;-69
2022/03/12 05:02:45;;;;;;;1.70;1.70;;;17.70;59.80;;;;;;5077199;27;44672;-69
2022/03/12 05:05:14;;;;;;;1.73;1.73;;;17.60;60.00;;;;;;5099693;27;44166;-69
2022/03/12 05:07:44;;;;;;;1.70;1.70;;;17.50;60.10;;;;;;5102844;27;44051;-69
2022/03/12 05:10:13;;;;;;;1.67;1.67;;;17.50;60.30;;;;;;5109614;27;43868;-68
2022/03/12 05:12:41;;;;;;;1.63;1.63;;;17.50;60.50;;;;;;5109305;27;43411;-68
2022/03/12 05:15:14;;;;;;;1.80;1.80;;;17.40;60.70;;;;;;5109981;27;43848;-68
2022/03/12 05:17:43;;;;;;;1.50;1.50;;;17.50;60.90;;;;;;5109837;27;43932;-69
2022/03/12 05:20:12;;;;;;;1.60;1.60;;;17.60;60.40;;;;;;5109380;27;44039;-69
2022/03/12 05:22:40;;;;;;;1.93;1.93;;;17.70;60.10;;;;;;5109021;27;44031;-69
2022/03/12 05:25:11;;;;;;;1.57;1.57;;;17.70;59.90;;;;;;5091402;27;44006;-69
2022/03/12 05:27:39;;;;;;;1.67;1.67;;;17.70;59.90;;;;;;5091263;27;44053;-68
2022/03/12 05:30:08;;;;;;;1.87;1.87;;;17.60;60.00;;;;;;5109192;27;44069;-69
2022/03/12 05:32:36;;;;;;;1.80;1.80;;;17.60;60.20;;;;;;5090151;27;45143;-70
2022/03/12 05:35:05;;;;;;;1.67;1.67;;;17.50;60.30;;;;;;5109386;27;43994;-69
2022/03/12 05:37:34;;;;;;;1.83;1.83;;;17.50;60.60;;;;;;5109317;27;43940;-69
2022/03/12 05:40:02;;;;;;;1.60;1.60;;;17.40;60.60;;;;;;5109485;27;45177;-69
2022/03/12 05:42:34;;;;;;;1.50;1.50;;;17.40;60.80;;;;;;5108705;27;43994;-68
2022/03/12 05:45:03;;;;;;;1.60;1.60;;;17.40;60.90;;;;;;5109487;27;43958;-69
2022/03/12 05:47:35;;;;;;;1.77;1.77;;;17.30;60.90;;;;;;5109146;27;43944;-69
2022/03/12 05:50:03;;;;;;;1.57;1.57;;;17.30;61.00;;;;;;5109372;27;43935;-68
2022/03/12 05:52:31;;;;;;;1.47;1.47;;;17.30;61.20;;;;;;5108541;27;44139;-70
2022/03/12 05:54:59;;;;;;;1.70;1.70;;;17.40;61.40;;;;;;5109753;27;43382;-69
2022/03/12 05:57:27;;;;;;;1.63;1.63;;;17.50;61.00;;;;;;5109322;27;43947;-69
2022/03/12 05:59:59;;;;;;;1.60;1.60;;;17.70;60.60;;;;;;5090209;27;45830;-68
2022/03/12 06:02:27;;;;;;;1.50;1.50;;;17.90;60.00;;;;;;5089582;27;45893;-69
2022/03/12 06:04:57;;;;;;;1.63;1.60;;;18.00;59.60;;;;;;5109279;27;43896;-69
2022/03/12 06:07:27;;;;;;;1.47;1.47;;;18.00;59.50;;;;;;5091370;27;44085;-69
2022/03/12 06:09:55;;;;;;;1.60;1.60;;;17.90;59.50;;;;;;5109151;27;44322;-69
2022/03/12 06:12:26;;;;;;;1.60;1.60;;;17.80;59.60;;;;;;5090013;27;44715;-69
2022/03/12 06:14:56;;;;;;;1.50;1.50;;;17.70;59.80;;;;;;5090840;27;43842;-69
2022/03/12 06:17:26;;;;;;;1.50;1.50;;;17.60;60.00;;;;;;5109360;27;43985;-70
2022/03/12 06:19:54;;;;;;;1.40;1.40;;;17.60;60.30;;;;;;5108902;27;44090;-68
2022/03/12 06:22:22;;;;;;;1.50;1.50;;;17.50;60.40;;;;;;5108755;27;44068;-69
2022/03/12 06:24:50;;;;;;;1.47;1.47;;;17.50;60.60;;;;;;5109225;27;43997;-70
2022/03/12 06:27:20;;;;;;;1.80;1.80;;;17.50;60.70;;;;;;5109009;27;43991;-68
2022/03/12 06:29:49;;;;;;;1.60;1.60;;;17.40;60.90;;;;;;5090201;27;47387;-69
2022/03/12 06:32:18;;;;;;;1.90;1.80;;;17.50;61.20;;;;;;5108750;27;43979;-68
2022/03/12 06:34:46;;;;;;;1.63;1.63;;;17.60;60.80;;;;;;5109069;27;43407;-69
2022/03/12 06:37:14;;;;;;;1.60;1.60;;;17.70;60.40;;;;;;5109063;27;44004;-69
2022/03/12 06:39:42;;;;;;;1.60;1.60;;;17.70;60.10;;;;;;5090018;27;44059;-69
2022/03/12 06:42:09;;;;;;;1.60;1.60;;;17.70;60.10;;;;;;5109037;27;43421;-68
2022/03/12 06:44:37;;;;;;;1.50;1.50;;;17.60;60.10;;;;;;5108805;27;43943;-69
2022/03/12 06:47:07;;;;;;;1.60;1.60;;;17.60;60.30;;;;;;5090629;27;43920;-69
2022/03/12 06:49:37;;;;;;;1.50;1.50;;;17.50;60.40;;;;;;5128164;27;44023;-69
2022/03/12 06:52:06;;;;;;;1.50;1.50;;;17.50;60.60;;;;;;5108967;27;44225;-68
2022/03/12 06:54:37;;;;;;;1.57;1.57;;;17.40;60.70;;;;;;5101684;27;44023;-69
2022/03/12 06:57:05;;;;;;;1.73;1.73;;;17.40;60.80;;;;;;5108527;27;43354;-69
2022/03/12 06:59:33;;;;;;;1.70;1.70;;;17.40;60.90;;;;;;5088920;27;46198;-68
2022/03/12 07:02:01;;;;;;;1.60;1.60;;;17.40;61.10;;;;;;5107975;27;43471;-69
2022/03/12 07:04:29;;;;;;;1.60;1.60;;;17.30;61.00;;;;;;5107909;27;44036;-69
2022/03/12 07:07:00;;;;;;;1.40;1.40;;;17.30;61.20;;;;;;5090455;27;44054;-69
2022/03/12 07:09:28;;;;;;;1.50;1.50;;;17.40;61.40;;;;;;5108360;27;44831;-68
2022/03/12 07:11:56;;;;;;;1.50;1.50;;;17.50;61.00;;;;;;5128053;27;43977;-68
2022/03/12 07:14:24;;;;;;;1.70;1.70;;;17.70;60.50;;;;;;5127654;27;43976;-69
2022/03/12 07:16:52;;;;;;;1.70;1.70;;;17.90;59.90;;;;;;5128394;27;43556;-69
2022/03/12 07:19:20;;;;;;;1.60;1.60;;;18.00;59.50;;;;;;5126993;27;44797;-68
2022/03/12 07:21:49;;;;;;;1.70;1.70;;;18.00;59.40;;;;;;5127503;27;44083;-69
2022/03/12 07:24:18;;;;;;;1.67;1.67;;;18.00;59.50;;;;;;5127265;27;44083;-68
2022/03/12 07:26:47;;;;;;;1.57;1.57;;;17.80;59.60;;;;;;5127910;27;43896;-69
2022/03/12 07:29:14;;;;;;;1.50;1.50;;;17.70;59.80;;;;;;5126499;27;45102;-69
2022/03/12 07:31:42;;;;;;;1.40;1.40;;;17.70;60.10;;;;;;5108439;27;44261;-69
2022/03/12 07:34:10;;;;;;;1.50;1.50;;;17.60;60.30;;;;;;5127616;27;44001;-69
2022/03/12 07:36:38;;;;;;;1.50;1.50;;;17.50;60.50;;;;;;5126795;27;44238;-69
2022/03/12 07:39:07;;;;;;;1.50;1.50;;;17.40;60.60;;;;;;5108377;27;45357;-68
2022/03/12 07:41:36;;;;;;;1.60;1.60;;;17.40;60.80;;;;;;5126372;27;43997;-69
2022/03/12 07:44:04;;;;;;;1.40;1.40;;;17.40;61.00;;;;;;5127314;27;43354;-69
2022/03/12 07:46:32;;;;;;;1.60;1.60;;;17.40;61.20;;;;;;5127324;27;43450;-69
2022/03/12 07:49:03;;;;;;;1.80;1.80;;;17.50;60.90;;;;;;5127174;27;45057;-69
2022/03/12 07:51:31;;;;;;;1.70;1.70;;;17.70;60.50;;;;;;5126766;27;44247;-68
2022/03/12 07:54:00;;;;;;;1.53;1.53;;;17.70;60.20;;;;;;5108550;27;43952;-68
2022/03/12 07:56:28;;;;;;;1.43;1.43;;;17.70;60.20;;;;;;5108409;27;43853;-69
2022/03/12 07:58:58;;;;;;;1.43;1.43;;;17.60;60.20;;;;;;5127263;27;44002;-69
2022/03/12 08:01:26;;;;;;;1.50;1.50;;;17.50;60.40;;;;;;5108148;27;46680;-69
2022/03/12 08:03:54;;;;;;;1.60;1.60;;;17.50;60.60;;;;;;5126582;27;43477;-68
2022/03/12 08:06:22;;;;;;;1.50;1.50;;;17.50;60.90;;;;;;5127043;27;44042;-68
2022/03/12 08:08:50;;;;;;;1.60;1.60;;;17.40;60.90;;;;;;5126415;27;43998;-68
2022/03/12 08:11:28;;;;;;;1.70;1.70;;;17.40;61.80;;;;;;5126466;27;43970;-69
2022/03/12 08:14:02;;;;;;;1.50;1.50;;;17.30;61.10;;;;;;5126872;27;44228;-69
2022/03/12 08:16:31;;;;;;;1.30;1.30;;;17.30;61.20;;;;;;5127506;27;43453;-69
2022/03/12 08:19:00;;;;;;;1.60;1.60;;;17.30;61.30;;;;;;5108115;27;46683;-69
2022/03/12 08:21:28;;;;;;;1.60;1.60;;;17.30;61.40;;;;;;5126575;27;43879;-68
2022/03/12 08:23:56;;;;;;;1.60;1.60;;;17.30;61.50;;;;;;5127223;27;43850;-68
2022/03/12 08:26:24;;;;;;;1.60;1.60;;;17.50;61.30;;;;;;5126661;27;43989;-69
2022/03/12 08:28:52;;;;;;;1.70;1.70;;;17.60;60.70;;;;;;5126491;27;43945;-69
2022/03/12 08:31:23;;;;;;;1.53;1.53;;;17.90;60.20;;;;;;5126054;27;43890;-69
2022/03/12 08:33:51;;;;;;;1.67;1.67;;;18.00;59.80;;;;;;5107851;27;43915;-69
2022/03/12 08:36:19;;;;;;;1.57;1.57;;;18.00;59.60;;;;;;5127000;27;44129;-69
2022/03/12 08:38:50;;;;;;;1.50;1.50;;;17.90;59.60;;;;;;5127001;27;44664;-68
2022/03/12 08:41:19;;;;;;;1.60;1.60;;;17.80;59.80;;;;;;5110298;27;45211;-68
2022/03/12 08:43:47;;;;;;;1.60;1.60;;;17.70;59.80;;;;;;5130109;27;43341;-68
2022/03/12 08:46:15;;;;;;;1.50;1.50;;;17.60;59.90;;;;;;5111648;27;44016;-69
2022/03/12 08:48:50;;;;;;;1.60;1.60;;;17.50;60.00;;;;;;5111191;27;45816;-68
2022/03/12 08:51:19;;;;;;;1.80;1.80;;;17.50;60.30;;;;;;5129848;27;43434;-68
2022/03/12 08:53:47;;;;;;;1.60;1.60;;;17.40;60.40;;;;;;5129747;27;43888;-70
2022/03/12 08:56:15;;;;;;;1.80;1.80;;;17.40;60.60;;;;;;5130425;27;43648;-70
2022/03/12 08:58:46;;;;;;;1.60;1.60;;;17.40;60.80;;;;;;5129662;27;44748;-69
2022/03/12 09:01:14;;;;;;;1.60;1.60;;;17.40;61.30;;;;;;5130189;27;43762;-68
2022/03/12 09:03:43;;;;;;;1.80;1.60;;;17.50;61.20;;;;;;5129232;27;44022;-70
2022/03/12 09:06:12;;;;;;;1.57;1.57;;;17.60;60.50;;;;;;5130072;27;43902;-69
2022/03/12 09:08:40;;;;;;;1.60;1.60;;;17.70;60.40;;;;;;5128883;27;44119;-69
2022/03/12 09:11:08;;;;;;;1.57;1.57;;;17.60;60.00;;;;;;5129428;27;43931;-69
2022/03/12 09:13:36;;;;;;;1.70;1.60;;;17.60;60.00;;;;;;5128549;27;43991;-68
2022/03/12 09:16:06;;;;;;;1.60;1.60;;;17.50;60.10;;;;;;5130157;27;44394;-69
2022/03/12 09:18:34;;;;;;;1.70;1.70;;;17.50;60.30;;;;;;5128806;27;44962;-69
2022/03/12 09:21:02;;;;;;;1.70;1.70;;;17.40;60.40;;;;;;5110795;27;44721;-69
2022/03/12 09:23:32;;;;;;;1.60;1.60;;;17.40;60.60;;;;;;5128866;27;43974;-69
2022/03/12 09:26:00;;;;;;;1.80;1.80;;;17.40;60.60;;;;;;5111609;27;43431;-69
2022/03/12 09:28:28;;;;;;;1.70;1.70;;;17.30;60.80;;;;;;5129101;27;43931;-69
2022/03/12 09:30:56;;;;;;;1.60;1.50;;;17.30;60.90;;;;;;5129370;27;44082;-69
2022/03/12 09:33:24;;;;;;;1.87;1.87;;;17.30;61.00;;;;;;5110031;27;43415;-69
2022/03/12 09:35:53;;;;;;;1.70;1.70;;;17.30;61.10;;;;;;5129485;27;43890;-70
2022/03/12 09:38:22;;;;;;;1.80;1.80;;;17.30;61.60;;;;;;5110402;27;45956;-69
2022/03/12 09:40:51;;;;;;;1.60;1.57;;;17.40;61.50;;;;;;5129334;27;43869;-69
2022/03/12 09:43:19;;;;;;;1.60;1.60;;;17.60;61.10;;;;;;5129204;27;43664;-68
2022/03/12 09:45:47;;;;;;;1.43;1.43;;;17.80;60.70;;;;;;5129347;27;44002;-69
2022/03/12 09:48:19;;;;;;;1.73;1.63;;;17.90;60.00;;;;;;5128769;27;44711;-68
2022/03/12 09:50:47;;;;;;;1.67;1.57;;;18.00;59.90;;;;;;5129087;27;44041;-68
2022/03/12 09:53:15;;;;;;;1.80;1.80;;;17.90;59.80;;;;;;5128482;27;44171;-69
2022/03/12 09:55:43;;;;;;;2.20;2.10;;;17.90;59.80;;;;;;5110192;27;43598;-69
2022/03/12 09:58:12;;;;;;;1.60;1.60;;;17.80;60.00;;;;;;5128898;27;43623;-68
2022/03/12 10:00:40;;;;;;;2.00;2.00;;;17.70;60.20;;;;;;5128623;27;44038;-70
2022/03/12 10:03:09;;;;;;;1.60;1.60;;;17.60;60.40;;;;;;5109838;27;43970;-69
2022/03/12 10:05:38;;;;;;;2.20;1.90;;;17.50;60.60;;;;;;5128309;27;43552;-70
2022/03/12 10:08:06;;;;;;;1.70;1.70;;;17.50;60.80;;;;;;5128926;27;43938;-69
2022/03/12 10:10:35;;;;;;;1.90;1.90;;;17.50;61.20;;;;;;5109425;27;44177;-69
2022/03/12 10:13:04;;;;;;;2.27;2.10;;;17.40;61.20;;;;;;5128542;27;44083;-69
2022/03/12 10:15:33;;;;;;;1.90;1.90;;;17.40;61.70;;;;;;5128548;27;43888;-69
2022/03/12 10:18:04;;;;;;;1.90;1.80;;;17.50;61.90;;;;;;5109596;27;45797;-69
2022/03/12 10:20:33;;;;;;;1.87;1.87;;;17.60;61.40;;;;;;5127933;27;43927;-69
2022/03/12 10:23:02;;;;;;;1.67;1.67;;;17.70;61.00;;;;;;5109914;27;43939;-69
2022/03/12 10:25:33;;;;;;;1.60;1.60;;;17.70;60.80;;;;;;5109594;27;43903;-69
2022/03/12 10:28:03;;;;;;;1.77;1.77;;;17.70;60.80;;;;;;5128403;27;44036;-69
2022/03/12 10:30:34;;;;;;;1.53;1.53;;;17.70;60.90;;;;;;5127748;27;43430;-71
2022/03/12 10:33:02;;;;;;;1.97;1.87;;;17.60;61.10;;;;;;5128741;27;43875;-69
2022/03/12 10:35:34;;;;;;;1.70;1.70;;;17.50;61.20;;;;;;5128540;27;43922;-68
2022/03/12 10:38:02;;;;;;;1.53;1.53;;;17.50;61.50;;;;;;5128310;27;44087;-69
2022/03/12 10:40:31;;;;;;;1.90;1.80;;;17.40;61.50;;;;;;5127744;27;43898;-68
2022/03/12 10:43:01;;;;;;;1.57;1.50;;;17.40;61.70;;;;;;5101804;27;43887;-69
2022/03/12 10:45:30;;;;;;;1.53;1.53;;;17.40;61.90;;;;;;5102282;27;43998;-69
2022/03/12 10:48:03;;;;;;;1.60;1.60;;;17.40;61.90;;;;;;5108665;27;43910;-68
2022/03/12 10:50:34;;;;;;;3.00;2.20;;;17.40;62.00;;;;;;5107489;27;44278;-68
2022/03/12 10:53:05;;;;;;;2.67;1.97;;;17.40;62.40;;;;;;5108222;27;43880;-68
2022/03/12 10:55:34;;;;;;;2.17;2.07;;;17.40;62.30;;;;;;5108364;27;44009;-69
2022/03/12 10:58:04;;;;;;;2.27;1.67;;;17.60;61.90;;;;;;5108121;27;43927;-68
2022/03/12 11:00:34;;;;;;;2.80;2.03;;;17.80;61.40;;;;;;5107837;27;44022;-69
2022/03/12 11:03:04;;;;;;;1.90;1.80;;;18.00;60.80;;;;;;5107524;27;43986;-69
2022/03/12 11:05:34;;;;;;;2.93;1.93;;;18.10;60.40;;;;;;5088728;27;44138;-69
2022/03/12 11:08:16;;;;;;;1.77;1.67;;;18.00;60.20;;;;;;5107948;27;43757;-68
2022/03/12 11:10:50;;;;;;;2.17;2.00;;;17.90;60.30;;;;;;5107700;27;44062;-68
2022/03/12 11:13:34;;;;;;;3.77;2.13;;;17.80;60.50;;;;;;5107966;27;43755;-68
2022/03/12 11:16:12;;;;;;;1.80;1.80;;;17.70;60.80;;;;;;5104844;27;43935;-69
2022/03/12 11:18:58;;;;;;;2.20;2.00;;;17.60;61.00;;;;;;5127076;27;43898;-68
2022/03/12 11:21:27;;;;;;;4.47;1.97;;;17.60;61.30;;;;;;5125144;27;43949;-69
2022/03/12 11:23:55;;;;;;;2.20;2.10;;;17.50;61.50;;;;;;5126211;27;44533;-69
2022/03/12 11:26:24;;;;;;;3.93;1.80;;;17.50;62.40;;;;;;5127395;27;44077;-69
2022/03/12 11:28:57;;;;;;;1.80;1.80;;;17.40;61.70;;;;;;5115404;27;43928;-68
2022/03/12 11:31:43;;;;;;;1.97;1.90;;;17.50;62.30;;;;;;5126836;27;44007;-69
2022/03/12 11:34:20;;;;;;;2.80;1.80;;;17.60;62.10;;;;;;5127290;27;43993;-69
2022/03/12 11:37:08;;;;;;;2.00;1.90;;;17.70;61.60;;;;;;5127637;27;43392;-69
2022/03/12 11:39:39;;;;;;;2.30;2.20;;;17.80;61.40;;;;;;5107861;27;46160;-69
2022/03/12 11:42:09;;;;;;;1.90;1.80;;;17.70;61.30;;;;;;5108412;27;44361;-69
2022/03/12 11:44:38;;;;;;;1.70;1.70;;;17.70;61.30;;;;;;5126672;27;43912;-69
2022/03/12 11:47:06;;;;;;;2.50;2.03;;;17.60;61.50;;;;;;5127511;27;43850;-69
2022/03/12 11:49:36;;;;;;;1.73;1.73;;;17.60;61.70;;;;;;5107843;27;46303;-69
2022/03/12 11:52:06;;;;;;;1.90;1.80;;;17.50;61.80;;;;;;5127329;27;44112;-68
2022/03/12 11:54:40;;;;;;;6.33;2.33;;;17.50;62.10;;;;;;5099555;27;43425;-68
2022/03/12 11:57:09;;;;;;;4.97;2.37;;;17.40;62.10;;;;;;5101688;27;43789;-68
2022/03/12 11:59:38;;;;;;;4.40;2.00;;;17.40;62.30;;;;;;5106693;27;43598;-67
2022/03/12 12:02:26;;;;;;;5.97;2.27;;;17.40;62.40;;;;;;5088290;27;44646;-69
2022/03/12 12:04:56;;;;;;;4.60;2.97;;;17.40;62.50;;;;;;5124465;27;43992;-69
2022/03/12 12:07:25;;;;;;;6.47;2.20;;;17.40;63.00;;;;;;5127044;27;43898;-68
2022/03/12 12:09:54;;;;;;;14.27;2.50;;;17.50;62.90;;;;;;5126568;27;45116;-68
2022/03/12 12:12:24;;;;;;;5.17;2.40;;;17.70;62.40;;;;;;5126337;27;43981;-68
2022/03/12 12:14:57;;;;;;;5.43;2.57;;;17.90;61.90;;;;;;5126019;27;43978;-68
2022/03/12 12:17:26;;;;;;;6.10;2.10;;;18.00;61.20;;;;;;5108467;27;44043;-69
2022/03/12 12:19:53;;;;;;;4.40;2.30;;;18.00;61.00;;;;;;5126702;27;44012;-68
2022/03/12 12:22:23;;;;;;;3.80;2.67;;;18.00;61.10;;;;;;5126036;27;43447;-69
2022/03/12 12:24:52;;;;;;;2.60;1.93;;;17.90;61.10;;;;;;5127007;27;43723;-69
2022/03/12 12:27:23;;;;;;;2.60;2.07;;;17.80;61.30;;;;;;5126327;27;43619;-70
2022/03/12 12:29:51;;;;;;;2.27;2.10;;;17.70;61.60;;;;;;5127142;27;43910;-69
2022/03/12 12:32:21;;;;;;;3.57;2.27;;;17.70;61.80;;;;;;5126199;27;44035;-68
2022/03/12 12:35:01;;;;;;;5.13;2.37;;;17.60;61.90;;;;;;5126861;27;43374;-69
2022/03/12 12:37:52;;;;;;;2.40;2.20;;;17.50;62.10;;;;;;5107878;27;44020;-69
2022/03/12 12:40:46;;;;;;;3.07;2.13;;;17.50;62.30;;;;;;5125789;27;43897;-68
2022/03/12 12:43:18;;;;;;;8.60;2.90;;;17.50;62.20;;;;;;5126512;27;44034;-69
2022/03/12 12:46:08;;;;;;;6.60;2.90;;;17.40;62.00;;;;;;5126657;27;43463;-68
2022/03/12 12:48:40;;;;;;;9.77;3.37;;;17.60;61.80;;;;;;5126543;27;43849;-70
2022/03/12 12:51:11;;;;;;;5.10;2.70;;;17.70;61.30;;;;;;5126400;27;45135;-69
2022/03/12 12:53:41;;;;;;;5.30;2.53;;;17.70;61.10;;;;;;5106896;27;44942;-68
2022/03/12 12:56:24;;;;;;;3.57;2.40;;;17.70;61.00;;;;;;5106621;27;44105;-69
2022/03/12 12:59:11;;;;;;;5.20;2.80;;;17.70;61.10;;;;;;5088574;27;43897;-69
2022/03/12 13:01:52;;;;;;;3.60;2.53;;;17.60;61.30;;;;;;5105666;27;43987;-68